Airfield :
LOGIN :

Register | Disclaimer

   EN    FR    IT 

 










Legend :    VFR   Marginal VFR   IFR   Intensive IFR   Very Intensive IFR
Visi :
Ceiling :
>= 8 km
>= 3000ft
5 to 8 km
1000 to 3000 ft
1500m to 5 km
500 to 1000 ft
800 to 1500m
200 to 500 ft
< 800m
< 200 ft
Symbols :   Thunderstorms  Fog  Heavy snow  Heavy precipitations  Wind > 20 kt
SIGMETs :     Misc.  Thunderstorms  Icing  Turbulence  Mountain Waves  Volcanic Ashes






- Airport Elevation : 236 ft
- IATA code : MMX


ESMS - Malmö Sturup

CURRENT METAR :
  • 040450Z 22014KT 7000 RA BKN013 15/14 Q1009

EXPIRED METARs :
  • 040420Z 23015KT 8000 RA FEW018 BKN027 15/14 Q1009
  • 040350Z 23016KT 9000 RA VV025 15/13 Q1009
  • 040320Z 23011KT 9999 -RA FEW021 BKN060 15/13 Q1009
  • 040250Z 21011KT CAVOK 15/13 Q1009
  • 040220Z 22010KT 9999 FEW035 15/13 Q1009

TAF TAF ESMS
Valid from the 04 at 00:00 until the 05 at 00:00 UTC


032302Z 0400/0424 23012KT 9999 BKN030
TEMPO 0400/0406 4000 RADZ BKN012
BECMG 0406/0408 2500 RA BKN008
TEMPO 0408/0424 6000 NSW BKN015



MET'MAP, your aeronautical weather chart ! - Copyright ORBIFLY December 2007 - Disclaimer

ORBIFLY MET'MAP TEAM :

Programming & Development : Alexandra Zaïnal
Concept & original design : Baudouin d'Aumeries
Assistance for programming : Marc-Olivier Méhu
Technical & hardware support : Manuel Goepfert

Contact : metmap@orbifly.com




SOURCES & CREDITS :

   NOAA